createdAt,value
2018-04-07T00:00:57.607Z,8.40
2018-04-07T00:01:57.601Z,10.40
2018-04-07T00:02:57.565Z,11.60
2018-04-07T00:03:57.536Z,10.40
2018-04-07T00:04:57.536Z,7.80
2018-04-07T00:05:57.509Z,11.60
2018-04-07T00:06:57.492Z,8.70
2018-04-07T00:07:57.453Z,11.70
2018-04-07T00:08:57.502Z,8.40
2018-04-07T00:09:57.430Z,8.70
2018-04-07T00:10:57.405Z,11.90
2018-04-07T00:11:57.389Z,10.40
2018-04-07T00:12:57.370Z,10.40
2018-04-07T00:13:57.346Z,9.70
2018-04-07T00:14:57.333Z,10.50
2018-04-07T00:15:57.308Z,9.60
2018-04-07T00:16:57.295Z,9.00
2018-04-07T00:17:57.308Z,11.10
2018-04-07T00:18:57.271Z,9.40
2018-04-07T00:19:57.242Z,9.00
2018-04-07T00:20:57.218Z,12.80
2018-04-07T00:21:57.249Z,8.60
2018-04-07T00:22:57.186Z,8.30
2018-04-07T00:23:57.153Z,10.70
2018-04-07T00:24:57.144Z,7.60
2018-04-07T00:25:57.132Z,8.80
2018-04-07T00:26:57.125Z,10.10
2018-04-07T00:27:57.083Z,6.80
2018-04-07T00:28:57.065Z,7.10
2018-04-07T00:29:57.053Z,5.10
2018-04-07T00:30:57.043Z,7.50
2018-04-07T00:31:57.013Z,8.70
2018-04-07T00:32:56.998Z,7.30
2018-04-07T00:33:57.007Z,9.00
2018-04-07T00:34:56.956Z,6.70
2018-04-07T00:35:56.932Z,9.60
2018-04-07T00:36:56.943Z,7.50
2018-04-07T00:37:56.900Z,8.40
2018-04-07T00:38:56.890Z,9.80
2018-04-07T00:39:56.859Z,9.80
2018-04-07T00:40:56.844Z,9.30
2018-04-07T00:41:56.828Z,7.80
2018-04-07T00:42:56.803Z,8.80
2018-04-07T00:43:56.793Z,11.70
2018-04-07T00:44:56.773Z,10.90
2018-04-07T00:45:56.750Z,6.50
2018-04-07T00:46:56.739Z,10.30
2018-04-07T00:47:56.709Z,9.20
2018-04-07T00:48:56.699Z,6.50
2018-04-07T00:49:56.746Z,9.00
2018-04-07T00:50:56.666Z,7.50
2018-04-07T00:51:56.634Z,6.30
2018-04-07T00:52:56.617Z,10.90
2018-04-07T00:53:56.596Z,11.40
2018-04-07T00:54:56.588Z,7.00
2018-04-07T00:55:56.559Z,10.50
2018-04-07T00:56:56.541Z,11.40
2018-04-07T00:57:56.524Z,9.60
2018-04-07T00:58:56.520Z,11.30
2018-04-07T00:59:56.485Z,6.70
2018-04-07T01:00:56.474Z,8.00
2018-04-07T01:01:56.499Z,6.90
2018-04-07T01:02:56.438Z,6.30
2018-04-07T01:03:56.417Z,5.60
2018-04-07T01:04:56.390Z,7.90
2018-04-07T01:05:56.423Z,11.50
2018-04-07T01:06:56.369Z,8.00
2018-04-07T01:07:56.336Z,12.10
2018-04-07T01:08:56.313Z,8.20
2018-04-07T01:09:56.339Z,8.40
2018-04-07T01:10:56.286Z,6.70
2018-04-07T01:11:56.305Z,8.40
2018-04-07T01:12:56.239Z,9.80
2018-04-07T01:13:56.222Z,6.70
2018-04-07T01:14:56.220Z,10.00
2018-04-07T01:15:56.186Z,9.20
2018-04-07T01:16:56.163Z,9.60
2018-04-07T01:17:56.153Z,7.50
2018-04-07T01:18:56.166Z,6.70
2018-04-07T01:19:56.117Z,6.40
2018-04-07T01:20:56.185Z,10.50
2018-04-07T01:21:56.090Z,11.60
2018-04-07T01:22:56.080Z,8.10
2018-04-07T01:23:56.030Z,9.60
2018-04-07T01:24:56.015Z,8.80
2018-04-07T01:25:56.014Z,9.10
2018-04-07T01:26:56.003Z,8.40
2018-04-07T01:27:55.967Z,8.80
2018-04-07T01:28:55.947Z,8.30
2018-04-07T01:29:55.952Z,7.60
2018-04-07T01:30:55.917Z,9.80
2018-04-07T01:31:55.918Z,7.30
2018-04-07T01:32:55.873Z,10.70
2018-04-07T01:33:55.858Z,7.50
2018-04-07T01:34:55.841Z,10.80
2018-04-07T01:35:55.879Z,7.90
2018-04-07T01:36:55.789Z,7.80
2018-04-07T01:37:55.781Z,9.10
2018-04-07T01:38:55.773Z,10.50
2018-04-07T01:39:55.746Z,10.90
2018-04-07T01:40:55.710Z,6.30
2018-04-07T01:41:55.718Z,6.80
2018-04-07T01:42:55.695Z,11.80
2018-04-07T01:43:55.704Z,7.00
2018-04-07T01:44:55.633Z,6.00
2018-04-07T01:45:55.713Z,9.10
2018-04-07T01:46:55.621Z,7.10
2018-04-07T01:47:55.578Z,8.50
2018-04-07T01:48:55.695Z,9.70
2018-04-07T01:49:55.550Z,7.20
2018-04-07T01:50:55.546Z,7.60
2018-04-07T01:51:55.500Z,8.30
2018-04-07T01:52:55.483Z,7.20
2018-04-07T01:53:55.474Z,10.90
2018-04-07T01:54:55.481Z,8.70
2018-04-07T01:55:55.427Z,6.90
2018-04-07T01:56:55.411Z,7.80
2018-04-07T01:57:55.400Z,5.80
2018-04-07T01:58:55.396Z,8.10
2018-04-07T01:59:55.346Z,11.20
2018-04-07T02:00:55.349Z,7.50
2018-04-07T02:01:55.388Z,7.50
2018-04-07T02:02:55.320Z,10.40
2018-04-07T02:03:55.292Z,7.40
2018-04-07T02:04:55.267Z,8.20
2018-04-07T02:05:55.263Z,8.30
2018-04-07T02:06:55.253Z,6.70
2018-04-07T02:07:55.195Z,5.90
2018-04-07T02:08:55.199Z,8.20
2018-04-07T02:09:55.172Z,5.00
2018-04-07T02:10:55.150Z,8.10
2018-04-07T02:11:55.130Z,9.30
2018-04-07T02:12:55.103Z,6.40
2018-04-07T02:13:55.113Z,10.10
2018-04-07T02:14:55.062Z,8.20
2018-04-07T02:15:55.044Z,8.60
2018-04-07T02:16:55.031Z,8.20
2018-04-07T02:17:55.021Z,7.10
2018-04-07T02:18:54.990Z,10.80
2018-04-07T02:19:54.965Z,8.00
2018-04-07T02:20:54.947Z,6.10
2018-04-07T02:21:54.945Z,8.80
2018-04-07T02:22:54.911Z,9.70
2018-04-07T02:23:54.899Z,8.60
2018-04-07T02:24:54.892Z,8.00
2018-04-07T02:25:54.865Z,8.70
2018-04-07T02:26:54.851Z,6.50
2018-04-07T02:27:54.818Z,7.40
2018-04-07T02:28:54.803Z,7.20
2018-04-07T02:29:54.793Z,10.10
2018-04-07T02:30:54.760Z,7.20
2018-04-07T02:31:54.778Z,8.60
2018-04-07T02:32:54.790Z,7.00
2018-04-07T02:33:54.725Z,8.20
2018-04-07T02:34:54.685Z,6.50
2018-04-07T02:35:54.661Z,8.90
2018-04-07T02:36:54.650Z,7.10
2018-04-07T02:37:54.636Z,7.10
2018-04-07T02:38:54.607Z,5.70
2018-04-07T02:39:54.606Z,5.80
2018-04-07T02:40:54.568Z,5.50
2018-04-07T02:41:54.571Z,6.80
2018-04-07T02:42:54.527Z,9.30
2018-04-07T02:43:54.526Z,8.80
2018-04-07T02:44:54.494Z,6.60
2018-04-07T02:45:54.496Z,5.20
2018-04-07T02:46:54.460Z,6.70
2018-04-07T02:47:54.432Z,7.50
2018-04-07T02:48:54.421Z,7.50
2018-04-07T02:49:54.437Z,9.10
2018-04-07T02:50:54.386Z,8.90
2018-04-07T02:51:54.355Z,10.00
2018-04-07T02:52:54.336Z,6.20
2018-04-07T02:53:54.356Z,8.20
2018-04-07T02:54:54.302Z,9.40
2018-04-07T02:55:54.277Z,8.50
2018-04-07T02:56:54.280Z,7.80
2018-04-07T02:57:54.289Z,6.50
2018-04-07T02:58:54.222Z,7.40
2018-04-07T02:59:54.240Z,7.20
2018-04-07T03:00:54.209Z,7.30
2018-04-07T03:01:54.168Z,7.30
2018-04-07T03:02:54.142Z,8.90
2018-04-07T03:03:54.183Z,7.50
2018-04-07T03:04:54.118Z,7.90
2018-04-07T03:05:54.118Z,9.10
2018-04-07T03:06:54.083Z,7.90
2018-04-07T03:07:54.048Z,8.30
2018-04-07T03:08:54.034Z,7.80
2018-04-07T03:09:54.007Z,6.10
2018-04-07T03:10:54.008Z,9.90
2018-04-07T03:11:53.993Z,7.50
2018-04-07T03:12:53.976Z,6.50
2018-04-07T03:13:53.959Z,7.70
2018-04-07T03:14:53.950Z,7.50
2018-04-07T03:15:53.920Z,6.90
2018-04-07T03:16:53.889Z,5.90
2018-04-07T03:17:53.856Z,8.10
2018-04-07T03:18:53.841Z,7.70
2018-04-07T03:19:53.834Z,8.20
2018-04-07T03:20:53.817Z,5.20
2018-04-07T03:21:53.822Z,7.40
2018-04-07T03:22:53.777Z,7.30
2018-04-07T03:23:53.762Z,7.40
2018-04-07T03:24:53.729Z,6.30
2018-04-07T03:25:53.702Z,8.60
2018-04-07T03:26:53.701Z,6.80
2018-04-07T03:27:53.688Z,9.20
2018-04-07T03:28:53.656Z,8.00
2018-04-07T03:29:53.634Z,8.40
2018-04-07T03:30:53.612Z,6.30
2018-04-07T03:31:53.590Z,8.00
2018-04-07T03:32:53.618Z,8.90
2018-04-07T03:33:53.556Z,6.30
2018-04-07T03:34:53.531Z,7.80
2018-04-07T03:35:53.511Z,9.60
2018-04-07T03:36:53.524Z,5.10
2018-04-07T03:37:53.473Z,8.80
2018-04-07T03:38:53.470Z,10.20
2018-04-07T03:39:53.432Z,10.90
2018-04-07T03:40:53.408Z,7.30
2018-04-07T03:41:53.391Z,8.50
2018-04-07T03:42:53.370Z,9.20
2018-04-07T03:43:53.360Z,8.30
2018-04-07T03:44:53.337Z,11.40
2018-04-07T03:45:53.310Z,10.50
2018-04-07T03:46:53.291Z,11.80
2018-04-07T03:47:53.285Z,8.50
2018-04-07T03:48:53.273Z,7.20
2018-04-07T03:49:53.288Z,10.60
2018-04-07T03:50:53.217Z,7.80
2018-04-07T03:51:53.218Z,7.00
2018-04-07T03:52:53.190Z,10.70
2018-04-07T03:53:53.158Z,6.50
2018-04-07T03:54:53.154Z,8.40
2018-04-07T03:55:53.124Z,11.60
2018-04-07T03:56:53.150Z,8.10
2018-04-07T03:57:53.098Z,10.00
2018-04-07T03:58:53.076Z,7.60
2018-04-07T03:59:53.052Z,10.60
2018-04-07T04:00:53.018Z,12.30
2018-04-07T04:01:52.999Z,9.70
2018-04-07T04:02:52.989Z,11.00
2018-04-07T04:03:52.993Z,9.70
2018-04-07T04:04:52.949Z,9.30
2018-04-07T04:05:52.946Z,9.00
2018-04-07T04:06:52.953Z,7.50
2018-04-07T04:07:52.927Z,7.40
2018-04-07T04:08:52.946Z,11.20
2018-04-07T04:09:52.851Z,5.80
2018-04-07T04:10:52.845Z,7.10
2018-04-07T04:11:52.833Z,8.40
2018-04-07T04:12:52.788Z,7.50
2018-04-07T04:13:52.772Z,5.80
2018-04-07T04:14:52.761Z,6.70
2018-04-07T04:15:52.730Z,8.70
2018-04-07T04:16:52.710Z,7.60
2018-04-07T04:17:52.689Z,9.30
2018-04-07T04:18:52.681Z,7.80
2018-04-07T04:19:52.681Z,7.70
2018-04-07T04:20:52.630Z,10.10
2018-04-07T04:21:52.629Z,6.60
2018-04-07T04:22:52.599Z,8.50
2018-04-07T04:23:52.569Z,8.50
2018-04-07T04:24:52.552Z,11.00
2018-04-07T04:25:52.538Z,8.30
2018-04-07T04:26:52.534Z,9.70
2018-04-07T04:27:52.500Z,9.50
2018-04-07T04:28:52.476Z,12.00
2018-04-07T04:29:52.464Z,10.30
2018-04-07T04:30:52.445Z,11.70
2018-04-07T04:31:52.454Z,9.20
2018-04-07T04:32:52.402Z,10.40
2018-04-07T04:33:52.407Z,8.40
2018-04-07T04:34:52.383Z,12.90
2018-04-07T04:35:52.382Z,9.40
2018-04-07T04:36:52.340Z,7.90
2018-04-07T04:37:52.316Z,9.20
2018-04-07T04:38:52.314Z,7.30
2018-04-07T04:39:52.260Z,5.50
2018-04-07T04:40:52.242Z,11.20
2018-04-07T04:41:52.260Z,7.10
2018-04-07T04:42:52.232Z,11.40
2018-04-07T04:43:52.221Z,10.40
2018-04-07T04:44:52.180Z,9.50
2018-04-07T04:45:52.167Z,11.20
2018-04-07T04:46:52.159Z,13.30
2018-04-07T04:47:52.103Z,6.80
2018-04-07T04:48:52.090Z,7.30
2018-04-07T04:49:52.085Z,7.20
2018-04-07T04:50:52.062Z,6.30
2018-04-07T04:51:52.028Z,6.80
2018-04-07T04:52:52.017Z,8.00
2018-04-07T04:53:52.000Z,6.90
2018-04-07T04:54:52.004Z,7.10
2018-04-07T04:55:51.952Z,6.40
2018-04-07T04:56:51.950Z,7.20
2018-04-07T04:57:51.930Z,7.80
2018-04-07T04:58:51.919Z,7.60
2018-04-07T04:59:51.881Z,8.30
2018-04-07T05:00:51.858Z,8.20
2018-04-07T05:01:51.883Z,8.30
2018-04-07T05:02:51.821Z,7.60
2018-04-07T05:03:51.804Z,6.90
2018-04-07T05:04:51.786Z,8.40
2018-04-07T05:05:51.766Z,7.60
2018-04-07T05:06:51.738Z,7.40
2018-04-07T05:07:51.790Z,7.50
2018-04-07T05:08:51.715Z,8.40
2018-04-07T05:09:51.688Z,8.50
2018-04-07T05:10:51.663Z,7.80
2018-04-07T05:11:51.652Z,7.80
2018-04-07T05:12:51.644Z,7.20
2018-04-07T05:13:51.608Z,6.60
2018-04-07T05:14:51.645Z,7.00
2018-04-07T05:15:51.558Z,10.10
2018-04-07T05:16:51.592Z,14.40
2018-04-07T05:17:51.535Z,10.20
2018-04-07T05:18:51.563Z,6.90
2018-04-07T05:19:51.503Z,7.40
2018-04-07T05:20:51.509Z,7.50
2018-04-07T05:21:51.487Z,9.70
2018-04-07T05:22:51.433Z,8.60
2018-04-07T05:23:51.406Z,9.60
2018-04-07T05:24:51.400Z,7.00
2018-04-07T05:25:51.386Z,7.10
2018-04-07T05:26:51.346Z,8.40
2018-04-07T05:27:51.333Z,8.10
2018-04-07T05:28:51.334Z,8.10
2018-04-07T05:29:51.307Z,7.70
2018-04-07T05:30:51.296Z,8.90
2018-04-07T05:31:51.253Z,8.60
2018-04-07T05:32:51.256Z,10.10
2018-04-07T05:33:51.214Z,8.80
2018-04-07T05:34:51.202Z,9.20
2018-04-07T05:35:51.184Z,7.90
2018-04-07T05:36:51.187Z,7.60
2018-04-07T05:37:51.172Z,11.40
2018-04-07T05:38:51.127Z,8.50
2018-04-07T05:39:51.111Z,9.90
2018-04-07T05:40:51.092Z,9.00
2018-04-07T05:41:51.055Z,7.40
2018-04-07T05:42:51.035Z,8.70
2018-04-07T05:43:51.043Z,11.10
2018-04-07T05:44:51.038Z,8.00
2018-04-07T05:45:51.043Z,7.40
2018-04-07T05:46:50.962Z,8.90
2018-04-07T05:47:50.966Z,8.10
2018-04-07T05:48:50.942Z,12.40
2018-04-07T05:49:50.928Z,8.30
2018-04-07T05:50:50.886Z,9.90
2018-04-07T05:51:50.888Z,12.00
2018-04-07T05:52:50.869Z,8.00
2018-04-07T05:53:50.827Z,9.60
2018-04-07T05:54:50.837Z,8.20
2018-04-07T05:55:50.818Z,10.10
2018-04-07T05:56:50.798Z,9.30
2018-04-07T05:57:50.758Z,8.10
2018-04-07T05:58:50.736Z,12.10
2018-04-07T05:59:50.808Z,7.60
2018-04-07T06:00:50.711Z,7.90
2018-04-07T06:01:50.677Z,11.00
2018-04-07T06:02:50.680Z,9.70
2018-04-07T06:03:50.661Z,9.90
2018-04-07T06:04:50.652Z,10.70
2018-04-07T06:05:50.622Z,10.10
2018-04-07T06:06:50.587Z,8.10
2018-04-07T06:07:50.577Z,8.70
2018-04-07T06:08:50.586Z,7.80
2018-04-07T06:09:50.606Z,9.00
2018-04-07T06:10:50.529Z,10.50
2018-04-07T06:11:50.498Z,10.60
2018-04-07T06:12:50.500Z,10.50
2018-04-07T06:13:50.471Z,7.60
2018-04-07T06:14:50.429Z,9.20
2018-04-07T06:15:50.443Z,18.80
2018-04-07T06:16:50.432Z,7.10
2018-04-07T06:17:50.423Z,9.60
2018-04-07T06:18:50.454Z,9.40
2018-04-07T06:19:50.353Z,7.20
2018-04-07T06:20:50.361Z,13.90
2018-04-07T06:21:50.320Z,9.40
2018-04-07T06:22:50.351Z,10.00
2018-04-07T06:23:50.285Z,9.60
2018-04-07T06:24:50.257Z,9.80
2018-04-07T06:25:50.238Z,9.30
2018-04-07T06:26:50.238Z,9.60
2018-04-07T06:27:50.219Z,9.20
2018-04-07T06:28:50.234Z,7.90
2018-04-07T06:29:50.184Z,11.30
2018-04-07T06:30:50.173Z,10.40
2018-04-07T06:31:50.136Z,7.30
2018-04-07T06:32:50.151Z,11.10
2018-04-07T06:33:50.129Z,9.70
2018-04-07T06:34:50.160Z,7.60
2018-04-07T06:35:50.075Z,9.30
2018-04-07T06:36:50.067Z,8.00
2018-04-07T06:37:50.047Z,10.80
2018-04-07T06:38:50.013Z,10.20
2018-04-07T06:39:49.995Z,9.90
2018-04-07T06:40:50.021Z,9.70
2018-04-07T06:41:50.002Z,9.40
2018-04-07T06:42:49.974Z,8.80
2018-04-07T06:43:49.984Z,9.80
2018-04-07T06:44:49.966Z,9.30
2018-04-07T06:45:49.925Z,9.70
2018-04-07T06:46:49.975Z,9.40
2018-04-07T06:47:49.926Z,8.40
2018-04-07T06:48:49.858Z,8.00
2018-04-07T06:49:49.858Z,8.90
2018-04-07T06:50:49.843Z,10.70
2018-04-07T06:51:49.836Z,10.50
2018-04-07T06:52:49.806Z,8.20
2018-04-07T06:53:49.766Z,18.80
2018-04-07T06:54:49.761Z,11.90
2018-04-07T06:55:49.764Z,11.20
2018-04-07T06:56:49.753Z,7.90
2018-04-07T06:57:49.727Z,9.90
2018-04-07T06:58:49.707Z,9.20
2018-04-07T06:59:49.687Z,8.50
2018-04-07T07:00:49.655Z,10.50
2018-04-07T07:01:49.643Z,11.50
2018-04-07T07:02:49.647Z,8.80
2018-04-07T07:03:49.635Z,11.80
2018-04-07T07:04:49.595Z,11.80
2018-04-07T07:05:49.583Z,8.80
2018-04-07T07:06:49.565Z,8.00
2018-04-07T07:07:49.618Z,10.80
2018-04-07T07:08:49.536Z,10.80
2018-04-07T07:09:49.516Z,10.50
2018-04-07T07:10:49.522Z,15.60
2018-04-07T07:11:49.477Z,11.20
2018-04-07T07:12:49.475Z,12.70
2018-04-07T07:13:49.488Z,10.80
2018-04-07T07:14:49.428Z,11.20
2018-04-07T07:15:49.431Z,10.60
2018-04-07T07:16:49.417Z,10.00
2018-04-07T07:17:49.415Z,13.30
2018-04-07T07:18:49.362Z,11.60
2018-04-07T07:19:49.344Z,10.70
2018-04-07T07:20:49.383Z,10.40
2018-04-07T07:21:49.362Z,9.90
2018-04-07T07:22:49.307Z,13.30
2018-04-07T07:23:49.298Z,12.70
2018-04-07T07:24:49.265Z,10.70
2018-04-07T07:25:49.265Z,10.20
2018-04-07T07:26:49.251Z,12.60
2018-04-07T07:27:49.218Z,15.80
2018-04-07T07:28:49.296Z,16.30
2018-04-07T07:29:49.199Z,14.30
2018-04-07T07:30:49.193Z,10.60
2018-04-07T07:31:49.181Z,11.40
2018-04-07T07:32:49.134Z,12.80
2018-04-07T07:33:49.125Z,11.80
2018-04-07T07:34:49.131Z,12.00
2018-04-07T07:35:49.104Z,11.90
2018-04-07T07:36:49.078Z,12.60
2018-04-07T07:37:49.072Z,10.80
2018-04-07T07:38:49.034Z,13.30
2018-04-07T07:39:49.032Z,16.10
2018-04-07T07:40:48.983Z,16.10
2018-04-07T07:41:49.005Z,12.40
2018-04-07T07:42:48.992Z,11.10
2018-04-07T07:43:48.971Z,13.70
2018-04-07T07:44:48.927Z,14.00
2018-04-07T07:45:48.915Z,15.50
2018-04-07T07:46:48.903Z,11.90
2018-04-07T07:47:48.921Z,13.60
2018-04-07T07:48:48.866Z,14.40
2018-04-07T07:49:48.844Z,14.20
2018-04-07T07:50:48.872Z,14.60
2018-04-07T07:51:48.844Z,11.00
2018-04-07T07:52:48.905Z,14.00
2018-04-07T07:53:48.789Z,11.60
2018-04-07T07:54:48.947Z,12.30
2018-04-07T07:55:48.759Z,13.00
2018-04-07T07:56:48.772Z,12.50
2018-04-07T07:57:48.712Z,11.90
2018-04-07T07:58:48.704Z,11.70
2018-04-07T07:59:48.718Z,13.00
2018-04-07T08:00:48.685Z,14.10
2018-04-07T08:01:48.640Z,13.70
2018-04-07T08:02:48.639Z,15.20
2018-04-07T08:03:48.614Z,11.70
2018-04-07T08:04:48.609Z,12.50
2018-04-07T08:05:48.571Z,14.60
2018-04-07T08:06:48.556Z,11.60
2018-04-07T08:07:48.552Z,12.60
2018-04-07T08:08:48.612Z,13.10
2018-04-07T08:09:48.538Z,16.30
2018-04-07T08:10:48.485Z,12.90
2018-04-07T08:11:48.490Z,15.20
2018-04-07T08:12:48.476Z,11.50
2018-04-07T08:13:48.460Z,14.00
2018-04-07T08:14:48.443Z,12.90
2018-04-07T08:15:48.410Z,12.10
2018-04-07T08:16:48.396Z,11.00
2018-04-07T08:17:48.458Z,12.90
2018-04-07T08:18:48.416Z,13.10
2018-04-07T08:19:48.350Z,12.80
2018-04-07T08:20:48.431Z,15.30
2018-04-07T08:21:48.328Z,14.10
2018-04-07T08:22:48.330Z,13.00
2018-04-07T08:23:48.270Z,14.50
2018-04-07T08:24:48.288Z,15.50
2018-04-07T08:25:48.452Z,12.00
2018-04-07T08:26:48.259Z,14.40
2018-04-07T08:27:48.260Z,12.80
2018-04-07T08:28:48.194Z,14.60
2018-04-07T08:29:48.184Z,14.00
2018-04-07T08:30:48.199Z,15.10
2018-04-07T08:31:48.183Z,11.70
2018-04-07T08:32:48.130Z,14.90
2018-04-07T08:33:48.135Z,12.90
2018-04-07T08:34:48.125Z,11.00
2018-04-07T08:35:48.147Z,14.40
2018-04-07T08:36:48.101Z,13.70
2018-04-07T08:37:48.049Z,14.30
2018-04-07T08:38:48.111Z,13.30
2018-04-07T08:39:48.041Z,13.90
2018-04-07T08:40:48.015Z,15.40
2018-04-07T08:41:47.992Z,14.40
2018-04-07T08:42:47.965Z,13.10
2018-04-07T08:43:47.960Z,16.50
2018-04-07T08:44:47.960Z,14.10
2018-04-07T08:45:48.006Z,14.60
2018-04-07T08:46:47.946Z,13.50
2018-04-07T08:47:47.907Z,12.40
2018-04-07T08:48:47.926Z,13.10
2018-04-07T08:49:47.890Z,12.00
2018-04-07T08:50:47.876Z,15.40
2018-04-07T08:51:47.864Z,14.00
2018-04-07T08:52:47.845Z,14.30
2018-04-07T08:53:47.824Z,13.70
2018-04-07T08:54:47.779Z,15.90
2018-04-07T08:55:47.791Z,16.00
2018-04-07T08:56:47.769Z,12.30
2018-04-07T08:57:47.781Z,12.30
2018-04-07T08:58:47.743Z,13.40
2018-04-07T08:59:47.728Z,13.60
2018-04-07T09:00:47.695Z,13.00
2018-04-07T09:01:47.691Z,14.40
2018-04-07T09:02:47.678Z,15.30
2018-04-07T09:03:47.670Z,12.00
2018-04-07T09:04:47.699Z,14.60
2018-04-07T09:05:47.621Z,14.30
2018-04-07T09:06:47.611Z,18.50
2018-04-07T09:07:47.594Z,15.20
2018-04-07T09:08:47.599Z,18.90
2018-04-07T09:09:47.552Z,16.40
2018-04-07T09:10:47.535Z,14.40
2018-04-07T09:11:47.552Z,16.00
2018-04-07T09:12:47.529Z,13.40
2018-04-07T09:13:47.491Z,13.00
2018-04-07T09:14:47.483Z,14.60
2018-04-07T09:15:47.471Z,15.30
2018-04-07T09:16:47.451Z,15.30
2018-04-07T09:17:47.450Z,18.00
2018-04-07T09:18:47.418Z,15.30
2018-04-07T09:19:47.399Z,16.80
2018-04-07T09:20:47.415Z,15.90
2018-04-07T09:21:47.495Z,16.40
2018-04-07T09:22:47.400Z,16.50
2018-04-07T09:23:47.345Z,14.60
2018-04-07T09:24:47.347Z,17.30
2018-04-07T09:25:47.354Z,14.40
2018-04-07T09:26:47.311Z,16.40
2018-04-07T09:27:47.306Z,16.60
2018-04-07T09:28:47.268Z,13.10
2018-04-07T09:29:47.269Z,13.60
2018-04-07T09:30:47.268Z,13.20
2018-04-07T09:31:47.270Z,13.90
2018-04-07T09:32:47.243Z,15.30
2018-04-07T09:33:47.218Z,12.20
2018-04-07T09:34:47.188Z,15.60
2018-04-07T09:35:47.182Z,14.30
2018-04-07T09:36:47.175Z,13.30
2018-04-07T09:37:47.144Z,15.60
2018-04-07T09:38:47.145Z,16.30
2018-04-07T09:39:47.116Z,16.50
2018-04-07T09:40:47.162Z,14.80
2018-04-07T09:41:47.123Z,14.10
2018-04-07T09:42:47.079Z,12.80
2018-04-07T09:43:47.065Z,14.20
2018-04-07T09:44:47.058Z,14.00
2018-04-07T09:45:47.141Z,17.30
2018-04-07T09:46:47.055Z,16.00
2018-04-07T09:47:46.997Z,14.40
2018-04-07T09:48:46.996Z,15.80
2018-04-07T09:49:47.056Z,16.10
2018-04-07T09:50:46.974Z,15.90
2018-04-07T09:51:46.979Z,13.70
2018-04-07T09:52:46.928Z,13.20
2018-04-07T09:53:46.913Z,14.30
2018-04-07T09:54:46.920Z,14.60
2018-04-07T09:55:47.069Z,14.70
2018-04-07T09:56:46.944Z,15.90
2018-04-07T09:57:46.907Z,13.20
2018-04-07T09:58:46.858Z,13.20
2018-04-07T09:59:46.872Z,13.30
2018-04-07T10:00:46.848Z,12.90
2018-04-07T10:01:46.853Z,15.30
2018-04-07T10:02:46.800Z,13.20
2018-04-07T10:03:46.786Z,15.20
2018-04-07T10:04:46.792Z,14.20
2018-04-07T10:05:46.764Z,15.80
2018-04-07T10:06:46.762Z,15.30
2018-04-07T10:07:46.727Z,14.80
2018-04-07T10:08:46.708Z,15.20
2018-04-07T10:09:46.724Z,14.70
2018-04-07T10:10:46.705Z,13.70
2018-04-07T10:11:46.681Z,14.40
2018-04-07T10:12:46.674Z,14.40
2018-04-07T10:13:46.713Z,12.90
2018-04-07T10:14:46.651Z,15.90
2018-04-07T10:15:46.664Z,13.80
2018-04-07T10:16:46.623Z,13.70
2018-04-07T10:17:46.585Z,12.80
2018-04-07T10:18:46.599Z,13.50
2018-04-07T10:19:46.571Z,12.10
2018-04-07T10:20:46.564Z,13.60
2018-04-07T10:21:46.560Z,16.20
2018-04-07T10:22:46.585Z,17.30
2018-04-07T10:23:46.531Z,15.90
2018-04-07T10:24:46.540Z,13.00
2018-04-07T10:25:46.519Z,17.00
2018-04-07T10:26:46.492Z,16.20
2018-04-07T10:27:46.464Z,14.40
2018-04-07T10:28:46.457Z,16.10
2018-04-07T10:29:46.444Z,16.10
2018-04-07T10:30:46.465Z,17.90
2018-04-07T10:31:46.593Z,17.50
2018-04-07T10:32:46.406Z,17.50
2018-04-07T10:33:46.380Z,16.30
2018-04-07T10:34:46.380Z,13.90
2018-04-07T10:35:46.364Z,17.70
2018-04-07T10:36:46.431Z,17.50
2018-04-07T10:37:46.348Z,16.10
2018-04-07T10:38:46.353Z,16.20
2018-04-07T10:39:46.317Z,19.50
2018-04-07T10:40:46.358Z,14.40
2018-04-07T10:41:46.308Z,14.60
2018-04-07T10:42:46.331Z,16.60
2018-04-07T10:43:46.293Z,15.20
2018-04-07T10:44:46.239Z,15.40
2018-04-07T10:45:46.257Z,15.40
2018-04-07T10:46:46.447Z,17.30
2018-04-07T10:47:46.239Z,19.40
2018-04-07T10:48:46.210Z,14.70
2018-04-07T10:49:46.227Z,15.30
2018-04-07T10:50:46.202Z,13.70
2018-04-07T10:51:46.269Z,16.30
2018-04-07T10:52:46.232Z,14.60
2018-04-07T10:53:46.149Z,15.10
2018-04-07T10:54:46.127Z,12.80
2018-04-07T10:55:46.129Z,15.70
2018-04-07T10:56:46.117Z,12.50
2018-04-07T10:57:46.113Z,16.00
2018-04-07T10:58:46.101Z,13.00
2018-04-07T10:59:46.073Z,13.50
2018-04-07T11:00:46.058Z,13.20
2018-04-07T11:01:46.038Z,15.90
2018-04-07T11:02:46.041Z,14.50
2018-04-07T11:03:46.026Z,15.80
2018-04-07T11:04:46.045Z,18.20
2018-04-07T11:05:46.012Z,17.40
2018-04-07T11:06:46.028Z,15.90
2018-04-07T11:07:45.971Z,15.90
2018-04-07T11:08:45.973Z,16.20
2018-04-07T11:09:45.944Z,17.50
2018-04-07T11:10:45.973Z,15.50
2018-04-07T11:11:45.942Z,16.70
2018-04-07T11:12:45.906Z,15.40
2018-04-07T11:13:45.905Z,17.30
2018-04-07T11:14:45.918Z,16.00
2018-04-07T11:15:45.923Z,14.10
2018-04-07T11:16:45.864Z,13.80
2018-04-07T11:17:45.864Z,14.10
2018-04-07T11:18:45.885Z,14.10
2018-04-07T11:19:45.857Z,15.70
2018-04-07T11:20:45.857Z,15.30
2018-04-07T11:21:45.787Z,14.60
2018-04-07T11:22:45.804Z,18.00
2018-04-07T11:23:45.805Z,18.40
2018-04-07T11:24:45.789Z,15.20
2018-04-07T11:25:45.765Z,12.60
2018-04-07T11:26:45.745Z,17.40
2018-04-07T11:27:45.737Z,17.80
2018-04-07T11:28:45.858Z,15.60
2018-04-07T11:29:45.718Z,17.90
2018-04-07T11:30:45.713Z,14.50
2018-04-07T11:31:45.702Z,15.70
2018-04-07T11:32:45.718Z,13.20
2018-04-07T11:33:45.674Z,14.60
2018-04-07T11:34:45.645Z,12.50
2018-04-07T11:35:45.701Z,13.80
2018-04-07T11:36:45.674Z,17.10
2018-04-07T11:37:45.605Z,13.30
2018-04-07T11:38:45.618Z,15.90
2018-04-07T11:39:45.617Z,15.40
2018-04-07T11:40:45.596Z,14.60
2018-04-07T11:41:45.576Z,15.60
2018-04-07T11:42:45.616Z,12.60
2018-04-07T11:43:45.539Z,13.70
2018-04-07T11:44:45.692Z,14.60
2018-04-07T11:45:45.557Z,17.60
2018-04-07T11:46:45.518Z,18.30
2018-04-07T11:47:45.518Z,15.50
2018-04-07T11:48:45.478Z,15.80
2018-04-07T11:49:45.470Z,13.00
2018-04-07T11:50:45.464Z,15.50
2018-04-07T11:51:45.460Z,15.10
2018-04-07T11:52:45.447Z,15.80
2018-04-07T11:53:45.442Z,18.20
2018-04-07T11:54:45.417Z,12.10
2018-04-07T11:55:45.458Z,15.20
2018-04-07T11:56:45.415Z,16.00
2018-04-07T11:57:45.399Z,15.00
2018-04-07T11:58:45.414Z,13.90
2018-04-07T11:59:45.391Z,15.90
2018-04-07T12:00:45.362Z,14.40
2018-04-07T12:01:45.344Z,14.90
2018-04-07T12:02:45.369Z,19.10
2018-04-07T12:03:45.321Z,14.20
2018-04-07T12:04:45.306Z,14.10
2018-04-07T12:05:45.331Z,12.90
2018-04-07T12:06:45.298Z,14.40
2018-04-07T12:07:45.301Z,13.50
2018-04-07T12:08:45.310Z,13.60
2018-04-07T12:09:45.295Z,15.20
2018-04-07T12:10:45.287Z,18.80
2018-04-07T12:11:45.263Z,14.60
2018-04-07T12:12:45.286Z,13.10
2018-04-07T12:13:45.366Z,14.90
2018-04-07T12:14:45.239Z,14.70
2018-04-07T12:15:45.204Z,14.20
2018-04-07T12:16:45.210Z,12.70
2018-04-07T12:17:45.205Z,12.60
2018-04-07T12:18:45.269Z,11.70
2018-04-07T12:19:45.160Z,13.20
2018-04-07T12:20:45.170Z,13.70
2018-04-07T12:21:45.158Z,14.80
2018-04-07T12:22:45.142Z,13.30
2018-04-07T12:23:45.123Z,12.50
2018-04-07T12:24:45.107Z,17.80
2018-04-07T12:25:45.089Z,11.90
2018-04-07T12:26:45.083Z,11.90
2018-04-07T12:27:45.098Z,10.80
2018-04-07T12:28:45.040Z,11.50
2018-04-07T12:29:45.040Z,10.50
2018-04-07T12:30:45.026Z,10.80
2018-04-07T12:31:45.046Z,11.10
2018-04-07T12:32:45.034Z,11.50
2018-04-07T12:33:45.016Z,10.90
2018-04-07T12:34:44.976Z,10.80
2018-04-07T12:35:44.980Z,14.20
2018-04-07T12:36:44.961Z,11.20
2018-04-07T12:37:44.965Z,10.40
2018-04-07T12:38:45.108Z,9.40
2018-04-07T12:39:44.946Z,10.00
2018-04-07T12:40:44.998Z,9.90
2018-04-07T12:41:44.965Z,11.00
2018-04-07T12:42:44.964Z,9.60
2018-04-07T12:43:44.910Z,10.60
2018-04-07T12:44:44.921Z,8.50
2018-04-07T12:45:44.952Z,10.50
2018-04-07T12:46:44.974Z,8.10
2018-04-07T12:47:44.856Z,9.70
2018-04-07T12:48:44.848Z,11.70
2018-04-07T12:49:44.851Z,11.20
2018-04-07T12:50:44.864Z,9.30
2018-04-07T12:51:44.837Z,8.80
2018-04-07T12:52:44.784Z,11.00
2018-04-07T12:53:44.828Z,11.90
2018-04-07T12:54:44.817Z,10.10
2018-04-07T12:55:44.791Z,8.90
2018-04-07T12:56:44.781Z,9.40
2018-04-07T12:57:44.791Z,11.10
2018-04-07T12:58:44.825Z,10.30
2018-04-07T12:59:44.738Z,9.90
2018-04-07T13:00:44.753Z,8.60
2018-04-07T13:01:44.719Z,10.20
2018-04-07T13:02:44.737Z,8.50
2018-04-07T13:03:44.731Z,8.90